createdAt,value
2018-04-22T00:00:55.106Z,89.25
2018-04-22T00:03:26.378Z,86.63
2018-04-22T00:05:57.969Z,82.18
2018-04-22T00:08:29.027Z,91.90
2018-04-22T00:11:00.845Z,82.12
2018-04-22T00:13:33.981Z,82.18
2018-04-22T00:16:05.835Z,84.57
2018-04-22T00:18:37.745Z,82.75
2018-04-22T00:21:09.159Z,84.40
2018-04-22T00:23:40.252Z,84.82
2018-04-22T00:26:11.383Z,88.22
2018-04-22T00:28:42.582Z,95.82
2018-04-22T00:31:14.192Z,100.35
2018-04-22T00:33:45.590Z,90.43
2018-04-22T00:36:16.858Z,85.32
2018-04-22T00:38:47.975Z,88.75
2018-04-22T00:41:19.217Z,87.72
2018-04-22T00:43:50.449Z,84.55
2018-04-22T00:46:21.720Z,94.18
2018-04-22T00:48:52.989Z,94.62
2018-04-22T00:51:24.638Z,96.03
2018-04-22T00:54:04.450Z,96.90
2018-04-22T00:56:35.913Z,85.00
2018-04-22T00:59:07.117Z,95.55
2018-04-22T01:01:38.285Z,82.18
2018-04-22T01:04:09.372Z,89.80
2018-04-22T01:06:40.995Z,85.00
2018-04-22T01:09:12.205Z,90.25
2018-04-22T01:11:43.292Z,91.57
2018-04-22T01:14:14.471Z,83.15
2018-04-22T01:16:45.669Z,99.28
2018-04-22T01:19:17.014Z,99.45
2018-04-22T01:21:48.540Z,88.22
2018-04-22T01:24:19.777Z,81.68
2018-04-22T01:30:08.925Z,81.80
2018-04-22T01:32:40.205Z,84.20
2018-04-22T01:35:11.540Z,83.18
2018-04-22T01:37:42.672Z,90.03
2018-04-22T01:40:15.963Z,95.80
2018-04-22T01:42:47.152Z,89.90
2018-04-22T01:45:18.794Z,83.05
2018-04-22T01:47:49.989Z,85.75
2018-04-22T01:50:21.307Z,89.00
2018-04-22T01:52:52.506Z,85.78
2018-04-22T01:55:23.739Z,88.82
2018-04-22T01:57:55.444Z,84.20
2018-04-22T02:00:26.879Z,82.65
2018-04-22T02:02:58.023Z,87.72
2018-04-22T02:05:29.331Z,90.50
2018-04-22T02:08:03.225Z,76.82
2018-04-22T02:10:34.427Z,87.03
2018-04-22T02:13:05.789Z,94.85
2018-04-22T02:15:37.365Z,97.35
2018-04-22T02:18:08.542Z,88.10
2018-04-22T02:20:39.708Z,92.32
2018-04-22T02:23:10.844Z,84.03
2018-04-22T02:25:42.003Z,81.12
2018-04-22T02:28:13.772Z,83.68
2018-04-22T02:30:44.945Z,96.18
2018-04-22T02:33:16.161Z,90.65
2018-04-22T02:35:47.349Z,87.37
2018-04-22T02:38:18.604Z,81.28
2018-04-22T02:40:51.027Z,82.70
2018-04-22T02:43:22.251Z,85.00
2018-04-22T02:45:53.492Z,89.22
2018-04-22T02:48:24.630Z,86.30
2018-04-22T02:50:56.136Z,81.35
2018-04-22T02:53:27.389Z,79.87
2018-04-22T02:55:59.623Z,87.10
2018-04-22T02:58:30.890Z,86.68
2018-04-22T03:01:02.077Z,86.87
2018-04-22T03:03:33.170Z,81.97
2018-04-22T03:06:04.947Z,86.53
2018-04-22T03:08:37.128Z,84.13
2018-04-22T03:11:08.613Z,88.10
2018-04-22T03:13:39.829Z,84.90
2018-04-22T03:16:10.895Z,79.40
2018-04-22T03:18:41.948Z,89.28
2018-04-22T03:21:13.316Z,85.90
2018-04-22T03:23:44.663Z,91.47
2018-04-22T03:26:16.422Z,79.05
2018-04-22T03:28:47.617Z,87.25
2018-04-22T03:31:18.945Z,89.03
2018-04-22T03:33:51.210Z,90.53
2018-04-22T03:36:22.956Z,106.45
2018-04-22T03:38:53.979Z,137.98
2018-04-22T03:41:25.077Z,90.80
2018-04-22T03:43:56.756Z,86.57
2018-04-22T03:46:28.029Z,79.22
2018-04-22T03:48:59.150Z,82.12
2018-04-22T03:51:30.457Z,86.47
2018-04-22T03:54:01.745Z,85.87
2018-04-22T03:56:33.105Z,94.37
2018-04-22T03:59:21.520Z,102.30
2018-04-22T04:01:53.218Z,92.28
2018-04-22T04:21:40.297Z,87.62
2018-04-22T04:24:24.235Z,104.03
2018-04-22T04:30:12.288Z,97.25
2018-04-22T04:32:54.513Z,103.93
2018-04-22T04:38:41.889Z,91.03
2018-04-22T04:42:17.664Z,79.80
2018-04-22T04:44:48.728Z,79.85
2018-04-22T04:47:19.384Z,87.78
2018-04-22T04:49:50.027Z,80.20
2018-04-22T04:52:20.781Z,84.22
2018-04-22T04:54:51.660Z,82.12
2018-04-22T04:57:22.391Z,84.65
2018-04-22T04:59:53.491Z,86.12
2018-04-22T05:02:24.076Z,90.72
2018-04-22T05:04:54.794Z,86.95
2018-04-22T05:07:25.401Z,83.90
2018-04-22T05:09:56.105Z,88.62
2018-04-22T05:12:26.809Z,84.00
2018-04-22T05:14:57.601Z,92.90
2018-04-22T05:17:28.231Z,90.47
2018-04-22T05:19:58.924Z,85.43
2018-04-22T05:22:29.641Z,90.00
2018-04-22T05:25:00.272Z,84.87
2018-04-22T05:27:30.952Z,74.85
2018-04-22T05:30:01.580Z,84.13
2018-04-22T05:32:32.180Z,85.57
2018-04-22T05:35:03.403Z,93.35
2018-04-22T05:37:34.068Z,91.35
2018-04-22T05:40:05.176Z,91.00
2018-04-22T05:42:35.744Z,91.85
2018-04-22T05:45:06.637Z,91.80
2018-04-22T05:47:37.311Z,95.82
2018-04-22T05:50:08.092Z,87.75
2018-04-22T05:52:38.976Z,100.32
2018-04-22T05:55:09.973Z,96.05
2018-04-22T05:57:40.651Z,92.68
2018-04-22T06:00:11.340Z,95.25
2018-04-22T06:02:42.066Z,94.65
2018-04-22T06:05:12.696Z,87.30
2018-04-22T06:07:43.239Z,91.80
2018-04-22T06:10:13.881Z,90.85
2018-04-22T06:12:44.743Z,92.53
2018-04-22T06:15:15.643Z,98.95
2018-04-22T06:17:46.409Z,92.32
2018-04-22T06:20:17.215Z,95.87
2018-04-22T06:22:47.961Z,110.25
2018-04-22T06:25:20.547Z,103.62
2018-04-22T06:27:51.283Z,102.30
2018-04-22T06:30:22.320Z,101.57
2018-04-22T06:32:52.905Z,92.62
2018-04-22T06:35:24.004Z,99.87
2018-04-22T06:37:54.742Z,102.05
2018-04-22T06:40:25.580Z,91.60
2018-04-22T06:42:56.351Z,90.40
2018-04-22T06:45:27.577Z,107.82
2018-04-22T06:47:58.480Z,97.20
2018-04-22T06:50:29.884Z,107.78
2018-04-22T06:53:01.006Z,104.47
2018-04-22T06:55:31.883Z,109.18
2018-04-22T06:58:02.463Z,101.35
2018-04-22T07:00:35.503Z,102.40
2018-04-22T07:03:06.562Z,107.35
2018-04-22T07:05:37.132Z,119.57
2018-04-22T07:08:08.164Z,112.62
2018-04-22T07:10:39.014Z,113.43
2018-04-22T07:13:09.718Z,98.47
2018-04-22T07:15:40.681Z,115.05
2018-04-22T07:18:11.270Z,100.47
2018-04-22T07:20:46.123Z,114.30
2018-04-22T07:23:16.847Z,99.53
2018-04-22T07:25:47.764Z,105.15
2018-04-22T07:28:18.500Z,113.80
2018-04-22T07:30:49.336Z,109.28
2018-04-22T07:33:20.092Z,108.20
2018-04-22T07:35:50.707Z,118.70
2018-04-22T07:38:21.429Z,111.43
2018-04-22T07:40:52.181Z,114.50
2018-04-22T07:43:22.885Z,119.18
2018-04-22T07:45:53.832Z,119.25
2018-04-22T07:48:24.588Z,110.63
2018-04-22T07:50:55.180Z,113.03
2018-04-22T07:53:26.062Z,114.57
2018-04-22T07:55:56.744Z,104.00
2018-04-22T07:58:27.410Z,113.15
2018-04-22T08:00:58.442Z,116.37
2018-04-22T08:03:29.156Z,120.57
2018-04-22T08:05:59.849Z,113.60
2018-04-22T08:08:30.698Z,108.90
2018-04-22T08:11:01.692Z,121.32
2018-04-22T08:13:32.395Z,119.87
2018-04-22T08:16:03.109Z,108.90
2018-04-22T08:18:33.883Z,121.80
2018-04-22T08:21:04.551Z,113.82
2018-04-22T08:23:35.095Z,121.05
2018-04-22T08:26:05.833Z,118.15
2018-04-22T08:28:36.420Z,114.85
2018-04-22T08:31:07.023Z,118.93
2018-04-22T08:33:37.553Z,117.32
2018-04-22T08:36:08.616Z,117.22
2018-04-22T08:38:39.642Z,105.30
2018-04-22T08:41:10.510Z,108.28
2018-04-22T08:43:41.115Z,111.00
2018-04-22T08:46:12.134Z,117.82
2018-04-22T08:48:43.043Z,113.78
2018-04-22T08:51:15.764Z,123.97
2018-04-22T08:53:54.416Z,126.55
2018-04-22T08:56:26.541Z,117.43
2018-04-22T08:58:58.197Z,123.07
2018-04-22T09:01:31.370Z,112.60
2018-04-22T09:04:02.800Z,109.97
2018-04-22T09:06:34.722Z,106.68
2018-04-22T09:09:12.841Z,101.62
2018-04-22T09:11:44.148Z,107.60
2018-04-22T09:14:18.639Z,116.95
2018-04-22T09:16:50.370Z,111.75
2018-04-22T09:19:21.431Z,105.75
2018-04-22T09:21:52.985Z,107.30
2018-04-22T09:24:24.339Z,103.18
2018-04-22T09:26:56.037Z,94.90
2018-04-22T09:29:27.419Z,105.30
2018-04-22T09:31:58.861Z,103.57
2018-04-22T09:34:30.429Z,106.20
2018-04-22T09:37:02.008Z,109.55
2018-04-22T09:39:33.022Z,115.57
2018-04-22T09:42:07.603Z,106.90
2018-04-22T09:44:38.731Z,110.35
2018-04-22T09:47:10.158Z,118.90
2018-04-22T09:49:41.536Z,113.22
2018-04-22T09:52:12.637Z,121.70
2018-04-22T09:54:43.941Z,110.50
2018-04-22T09:57:15.188Z,105.30
2018-04-22T09:59:46.768Z,98.82
2018-04-22T10:02:18.923Z,106.57
2018-04-22T10:04:50.586Z,101.35
2018-04-22T10:07:21.982Z,97.88
2018-04-22T10:09:53.737Z,104.82
2018-04-22T10:12:25.411Z,105.57
2018-04-22T10:14:56.885Z,106.53
2018-04-22T10:17:28.105Z,105.65
2018-04-22T10:19:59.628Z,104.85
2018-04-22T10:22:33.714Z,114.82
2018-04-22T10:25:05.035Z,104.47
2018-04-22T10:27:36.676Z,105.53
2018-04-22T10:30:11.158Z,108.07
2018-04-22T10:32:45.263Z,105.75
2018-04-22T10:35:18.048Z,114.07
2018-04-22T10:37:51.029Z,105.60
2018-04-22T10:40:22.520Z,98.30
2018-04-22T10:42:53.652Z,108.78
2018-04-22T10:45:28.299Z,111.45
2018-04-22T10:47:59.506Z,118.60
2018-04-22T10:50:31.546Z,102.15
2018-04-22T10:53:03.910Z,101.28
2018-04-22T10:55:34.956Z,98.00
2018-04-22T10:58:06.469Z,102.30
2018-04-22T11:00:37.871Z,100.25
2018-04-22T11:03:09.293Z,97.75
2018-04-22T11:05:40.425Z,104.75
2018-04-22T11:08:11.861Z,115.00
2018-04-22T11:10:44.304Z,102.82
2018-04-22T11:13:17.034Z,107.00
2018-04-22T11:15:49.078Z,100.53
2018-04-22T11:18:19.878Z,110.30
2018-04-22T11:20:50.632Z,104.60
2018-04-22T11:23:21.371Z,103.50
2018-04-22T11:25:52.075Z,108.97
2018-04-22T11:28:23.598Z,114.82
2018-04-22T11:30:54.482Z,110.15
2018-04-22T11:33:25.152Z,111.78
2018-04-22T11:35:55.791Z,101.60
2018-04-22T11:38:26.574Z,105.12
2018-04-22T11:40:57.151Z,101.87
2018-04-22T11:43:28.625Z,98.10
2018-04-22T11:45:59.228Z,106.63
2018-04-22T11:48:29.865Z,105.53
2018-04-22T11:51:00.580Z,103.38
2018-04-22T11:53:31.299Z,108.65
2018-04-22T11:56:02.056Z,98.12
2018-04-22T11:58:32.887Z,105.45
2018-04-22T12:01:03.548Z,109.90
2018-04-22T12:03:34.418Z,98.18
2018-04-22T12:06:05.246Z,92.70
2018-04-22T12:08:36.411Z,100.90
2018-04-22T12:11:07.044Z,95.05
2018-04-22T12:13:38.139Z,111.65
2018-04-22T12:16:08.840Z,93.62
2018-04-22T12:18:39.494Z,99.30
2018-04-22T12:21:10.008Z,96.30
2018-04-22T12:23:40.736Z,98.35
2018-04-22T12:26:12.004Z,102.38
2018-04-22T12:28:42.678Z,97.78
2018-04-22T12:31:13.588Z,102.35
2018-04-22T12:33:44.169Z,95.43
2018-04-22T12:36:14.871Z,103.72
2018-04-22T12:38:45.502Z,100.15
2018-04-22T12:41:16.155Z,103.93
2018-04-22T12:43:46.941Z,111.43
2018-04-22T12:46:17.593Z,105.03
2018-04-22T12:48:48.257Z,101.50
2018-04-22T12:51:19.116Z,102.12
2018-04-22T12:53:49.735Z,105.20
2018-04-22T12:56:20.515Z,101.05
2018-04-22T12:58:51.180Z,105.70
2018-04-22T13:01:22.396Z,106.55
2018-04-22T13:03:53.072Z,101.75
2018-04-22T13:06:23.656Z,108.47
2018-04-22T13:08:54.332Z,104.85
2018-04-22T13:11:24.997Z,107.57
2018-04-22T13:13:55.669Z,100.47
2018-04-22T13:16:26.328Z,106.95
2018-04-22T13:18:56.974Z,100.47
2018-04-22T13:21:27.956Z,101.38
2018-04-22T13:23:58.679Z,104.38
2018-04-22T13:26:29.384Z,100.55
2018-04-22T13:29:01.239Z,107.57
2018-04-22T13:31:31.889Z,105.63
2018-04-22T13:34:02.534Z,106.43
2018-04-22T13:36:33.280Z,114.37
2018-04-22T13:39:04.487Z,108.45
2018-04-22T13:41:35.327Z,114.37
2018-04-22T13:44:05.992Z,96.20
2018-04-22T13:46:36.524Z,104.22
2018-04-22T13:49:07.210Z,106.53
2018-04-22T13:51:37.864Z,104.32
2018-04-22T13:54:08.479Z,108.40
2018-04-22T13:56:39.596Z,110.15
2018-04-22T13:59:10.678Z,104.07
2018-04-22T14:01:41.880Z,98.32
2018-04-22T14:04:13.028Z,106.97
2018-04-22T14:06:44.108Z,107.28
2018-04-22T14:09:15.233Z,107.45
2018-04-22T14:11:46.368Z,111.80
2018-04-22T14:14:17.592Z,119.37
2018-04-22T14:16:49.518Z,104.45
2018-04-22T14:19:20.632Z,101.97
2018-04-22T14:21:51.628Z,101.65
2018-04-22T14:24:22.981Z,110.07
2018-04-22T14:26:54.116Z,111.55
2018-04-22T14:29:25.232Z,106.95
2018-04-22T14:31:56.446Z,93.20
2018-04-22T14:34:27.742Z,105.82
2018-04-22T14:36:59.056Z,103.32
2018-04-22T14:39:30.389Z,100.25
2018-04-22T17:59:56.501Z,110.97
2018-04-22T18:02:27.355Z,112.80
2018-04-22T18:04:58.033Z,115.97
2018-04-22T18:07:28.759Z,120.75
2018-04-22T18:09:59.576Z,117.00
2018-04-22T18:12:31.505Z,113.35
2018-04-22T18:15:02.225Z,119.57
2018-04-22T18:17:33.377Z,110.80
2018-04-22T18:20:04.077Z,110.25
2018-04-22T18:22:34.796Z,153.32
2018-04-22T18:25:05.673Z,144.65
2018-04-22T18:27:36.320Z,110.57
2018-04-22T18:30:07.097Z,116.37
2018-04-22T18:32:37.780Z,106.90
2018-04-22T18:35:08.532Z,111.95
2018-04-22T18:37:39.137Z,106.05
2018-04-22T18:40:10.006Z,113.37
2018-04-22T18:42:41.016Z,103.80
2018-04-22T18:45:11.692Z,100.47
2018-04-22T18:47:42.651Z,103.05
2018-04-22T18:50:14.672Z,93.85
2018-04-22T18:55:32.898Z,96.50
2018-04-22T18:58:03.991Z,103.40
2018-04-22T19:00:38.983Z,105.87
2018-04-22T19:03:09.910Z,99.68
2018-04-22T19:05:40.997Z,112.47
2018-04-22T19:08:12.588Z,103.40
2018-04-22T19:10:44.061Z,102.95
2018-04-22T19:19:24.004Z,101.87
2018-04-22T19:28:32.739Z,112.10
2018-04-22T19:31:03.865Z,107.03
2018-04-22T19:33:34.773Z,107.50
2018-04-22T19:36:05.468Z,100.55
2018-04-22T19:38:36.787Z,98.53
2018-04-22T19:41:08.236Z,111.97
2018-04-22T19:43:39.173Z,112.07
2018-04-22T19:46:10.473Z,107.37
2018-04-22T19:48:51.050Z,111.55
2018-04-22T19:51:21.849Z,145.45
2018-04-22T19:53:52.890Z,175.27
2018-04-22T19:56:23.881Z,124.55
2018-04-22T19:58:54.611Z,110.53
2018-04-22T20:01:26.548Z,110.65
2018-04-22T20:03:57.129Z,103.82
2018-04-22T20:06:27.801Z,109.00
2018-04-22T20:08:58.736Z,103.95
2018-04-22T20:11:29.820Z,104.60
2018-04-22T20:14:02.080Z,107.32
2018-04-22T20:16:33.535Z,117.65
2018-04-22T20:19:05.552Z,102.82
2018-04-22T20:21:36.631Z,103.43
2018-04-22T20:24:08.589Z,98.20
2018-04-22T20:26:40.541Z,104.22
2018-04-22T20:29:12.207Z,106.12
2018-04-22T20:31:51.758Z,103.72
2018-04-22T20:34:22.640Z,104.65
2018-04-22T20:36:54.096Z,101.12
2018-04-22T20:39:24.893Z,104.07
2018-04-22T20:41:55.724Z,104.12
2018-04-22T20:44:26.610Z,103.20
2018-04-22T20:46:59.757Z,108.97
2018-04-22T20:49:32.793Z,94.72
2018-04-22T20:52:05.359Z,97.47
2018-04-22T20:54:37.057Z,103.68
2018-04-22T20:57:07.941Z,105.65
2018-04-22T20:59:40.921Z,100.72
2018-04-22T21:02:11.720Z,103.57
2018-04-22T21:04:42.458Z,99.97
2018-04-22T21:07:13.978Z,103.43
2018-04-22T21:09:45.273Z,103.57
2018-04-22T21:12:16.746Z,101.32
2018-04-22T21:14:48.059Z,101.55
2018-04-22T21:17:20.323Z,105.37
2018-04-22T21:19:51.430Z,102.87
2018-04-22T21:22:22.496Z,97.97
2018-04-22T21:24:53.576Z,105.25
2018-04-22T21:27:24.802Z,100.03
2018-04-22T21:29:55.895Z,95.35
2018-04-22T21:32:27.103Z,95.05
2018-04-22T21:34:58.607Z,91.37
2018-04-22T21:37:29.825Z,96.75
2018-04-22T21:40:01.639Z,97.35
2018-04-22T21:42:33.623Z,103.53
2018-04-22T21:45:05.791Z,95.53
2018-04-22T21:47:37.068Z,103.97
2018-04-22T21:50:08.236Z,100.60
2018-04-22T21:52:39.340Z,91.35
2018-04-22T21:55:10.903Z,97.65
2018-04-22T21:57:42.442Z,98.62
2018-04-22T22:00:13.606Z,102.30
2018-04-22T22:02:44.869Z,104.63
2018-04-22T22:05:16.217Z,99.55
2018-04-22T22:07:47.161Z,103.28
2018-04-22T22:10:18.303Z,96.00
2018-04-22T22:12:49.554Z,101.07
2018-04-22T22:15:21.249Z,107.65
2018-04-22T22:17:52.357Z,101.03
2018-04-22T22:20:23.734Z,107.60
2018-04-22T22:22:55.864Z,102.75
2018-04-22T22:25:27.170Z,106.07
2018-04-22T22:27:58.812Z,99.62
2018-04-22T22:30:29.893Z,96.87
2018-04-22T22:33:13.035Z,109.28
2018-04-22T22:35:43.693Z,100.65
2018-04-22T22:38:14.468Z,106.55
2018-04-22T22:40:45.192Z,105.65
2018-04-22T22:43:15.800Z,102.03
2018-04-22T22:45:46.520Z,92.97
2018-04-22T22:48:17.100Z,88.60
2018-04-22T22:50:47.999Z,101.78
2018-04-22T22:53:18.669Z,91.03
2018-04-22T22:55:49.320Z,87.70
2018-04-22T22:58:20.000Z,98.78
2018-04-22T23:00:50.779Z,98.32
2018-04-22T23:03:21.561Z,96.15
2018-04-22T23:05:52.221Z,92.55
2018-04-22T23:08:23.064Z,96.53
2018-04-22T23:10:53.949Z,97.03
2018-04-22T23:13:24.845Z,101.70
2018-04-22T23:15:55.582Z,103.50
2018-04-22T23:18:26.423Z,100.45
2018-04-22T23:20:57.259Z,104.80
2018-04-22T23:23:27.985Z,106.72
2018-04-22T23:25:58.707Z,95.65
2018-04-22T23:28:29.922Z,100.87
2018-04-22T23:31:00.684Z,99.65
2018-04-22T23:33:31.400Z,103.57
2018-04-22T23:36:02.280Z,101.65
2018-04-22T23:38:33.059Z,104.68
2018-04-22T23:41:04.504Z,109.97
2018-04-22T23:43:35.216Z,99.95
2018-04-22T23:46:05.868Z,105.93
2018-04-22T23:48:36.531Z,103.18
2018-04-22T23:51:07.278Z,110.22
2018-04-22T23:53:38.365Z,109.95
2018-04-22T23:56:09.155Z,103.00
2018-04-22T23:58:39.936Z,97.53
